Avon, United Kingdom
Current Conditions -  °F | °C
As of 11:50 AM on Monday 24 Nov 2014 (Local Time) from EGBE Reporting Station
Clear Clear  
Wind Chill: 43°   Ceiling: Unl
Heat Index: 43°   Visibility: 6mi
Dew Point: 39°   Wind: 3mph
Humidity: 87%   Direction: 230°SW
Pressure: 30.33"   Gusts: NA
Location:  52.4°N, 1.5°W
Report Text: EGBE 241150Z 23003KT CAVOK 06/04 Q1027
Loading
Personal Weather Stations






























Interactive Weather Map New forecast layout! Learn more

10-Day Weather Forecast

Advertisements
Track Severe Weather on mobile